createdAt,value
2023-06-10T00:01:50.998Z,96.30
2023-06-10T00:04:23.940Z,95.40
2023-06-10T00:06:56.314Z,95.30
2023-06-10T00:09:30.235Z,95.30
2023-06-10T00:12:02.764Z,95.20
2023-06-10T00:14:41.666Z,96.30
2023-06-10T00:17:16.607Z,95.80
2023-06-10T00:19:48.852Z,95.50
2023-06-10T00:22:23.327Z,95.60
2023-06-10T00:25:01.441Z,96.10
2023-06-10T00:27:37.230Z,97.00
2023-06-10T00:30:09.927Z,96.70
2023-06-10T00:32:42.814Z,97.00
2023-06-10T00:35:15.172Z,96.90
2023-06-10T00:37:47.370Z,97.00
2023-06-10T00:40:19.733Z,96.60
2023-06-10T00:42:51.882Z,96.60
2023-06-10T00:45:24.037Z,96.50
2023-06-10T00:47:57.184Z,96.70
2023-06-10T00:50:30.389Z,97.70
2023-06-10T00:53:03.983Z,97.10
2023-06-10T00:55:36.994Z,96.70
2023-06-10T00:58:10.183Z,97.10
2023-06-10T01:00:42.663Z,96.80
2023-06-10T01:03:18.625Z,96.80
2023-06-10T01:06:13.105Z,97.00
2023-06-10T01:09:27.531Z,97.70
2023-06-10T01:12:15.681Z,97.20
2023-06-10T01:14:53.351Z,97.90
2023-06-10T01:17:28.076Z,98.60
2023-06-10T01:20:00.576Z,98.10
2023-06-10T01:22:37.818Z,97.40
2023-06-10T01:25:10.496Z,98.00
2023-06-10T01:27:46.264Z,98.00
2023-06-10T01:30:24.393Z,98.40
2023-06-10T01:33:02.801Z,99.60
2023-06-10T01:35:40.453Z,98.60
2023-06-10T01:38:17.019Z,98.60
2023-06-10T01:40:52.453Z,98.90
2023-06-10T01:43:25.758Z,99.50
2023-06-10T01:45:58.064Z,98.90
2023-06-10T01:48:30.291Z,99.10
2023-06-10T01:51:03.544Z,99.30
2023-06-10T01:53:36.813Z,99.30
2023-06-10T01:56:09.096Z,99.80
2023-06-10T01:58:41.984Z,99.90
2023-06-10T02:01:14.567Z,99.90
2023-06-10T02:03:46.879Z,99.90
2023-06-10T02:06:19.056Z,99.90
2023-06-10T02:08:51.422Z,99.90
2023-06-10T02:11:23.694Z,99.90
2023-06-10T02:13:56.134Z,99.90
2023-06-10T02:16:28.353Z,99.90
2023-06-10T02:19:01.752Z,99.90
2023-06-10T02:21:37.956Z,99.90
2023-06-10T02:24:10.476Z,99.90
2023-06-10T02:26:42.830Z,99.90
2023-06-10T02:29:15.171Z,99.90
2023-06-10T02:31:47.598Z,99.90
2023-06-10T02:34:20.108Z,99.90
2023-06-10T02:36:52.888Z,99.90
2023-06-10T02:39:25.236Z,99.90
2023-06-10T02:41:57.524Z,99.90
2023-06-10T02:44:29.847Z,99.90
2023-06-10T02:47:02.222Z,99.90
2023-06-10T02:49:34.622Z,99.90
2023-06-10T02:52:08.342Z,99.90
2023-06-10T02:54:40.853Z,99.90
2023-06-10T02:57:13.126Z,99.90
2023-06-10T02:59:46.323Z,99.90
2023-06-10T03:02:18.668Z,99.90
2023-06-10T03:04:51.657Z,99.90
2023-06-10T03:07:27.269Z,99.90
2023-06-10T03:09:59.437Z,99.90
2023-06-10T03:12:31.701Z,99.90
2023-06-10T03:15:05.254Z,99.90
2023-06-10T03:17:38.443Z,99.90
2023-06-10T03:20:11.742Z,99.90
2023-06-10T03:22:44.418Z,99.90
2023-06-10T03:25:17.310Z,99.90
2023-06-10T03:27:49.674Z,99.90
2023-06-10T03:30:21.903Z,99.90
2023-06-10T03:32:54.286Z,99.90
2023-06-10T03:35:27.124Z,99.90
2023-06-10T03:38:00.228Z,99.90
2023-06-10T03:40:33.049Z,99.90
2023-06-10T03:43:05.366Z,99.90
2023-06-10T03:45:38.002Z,99.90
2023-06-10T03:48:10.512Z,99.90
2023-06-10T03:50:42.973Z,99.90
2023-06-10T03:53:15.276Z,99.90
2023-06-10T03:55:47.681Z,99.90
2023-06-10T03:58:20.821Z,99.90
2023-06-10T04:00:53.904Z,99.90
2023-06-10T04:03:27.391Z,99.90
2023-06-10T04:06:00.661Z,99.90
2023-06-10T04:08:34.067Z,99.90
2023-06-10T04:11:06.315Z,99.90
2023-06-10T04:13:38.800Z,99.90
2023-06-10T04:16:11.690Z,99.90
2023-06-10T04:18:43.965Z,99.90
2023-06-10T04:21:16.335Z,99.90
2023-06-10T04:23:49.712Z,99.90
2023-06-10T04:26:23.035Z,99.90
2023-06-10T04:28:55.155Z,99.90
2023-06-10T04:31:27.376Z,99.90
2023-06-10T04:33:59.748Z,99.90
2023-06-10T04:36:32.626Z,99.90
2023-06-10T04:39:06.849Z,99.90
2023-06-10T04:41:38.988Z,99.90
2023-06-10T04:44:12.002Z,99.90
2023-06-10T04:46:44.426Z,99.90
2023-06-10T04:49:17.238Z,99.90
2023-06-10T04:51:49.526Z,99.90
2023-06-10T04:54:23.270Z,99.90
2023-06-10T04:56:55.628Z,99.90
2023-06-10T04:59:27.776Z,99.90
2023-06-10T05:02:00.363Z,99.90
2023-06-10T05:04:32.638Z,99.90
2023-06-10T05:07:05.988Z,99.90
2023-06-10T05:09:38.316Z,99.90
2023-06-10T05:12:11.069Z,99.90
2023-06-10T05:14:43.280Z,99.90
2023-06-10T05:17:16.643Z,99.90
2023-06-10T05:19:48.854Z,99.90
2023-06-10T05:22:21.015Z,99.90
2023-06-10T05:24:56.086Z,99.90
2023-06-10T05:27:28.762Z,99.90
2023-06-10T05:30:01.018Z,99.90
2023-06-10T05:32:34.200Z,99.90
2023-06-10T05:35:07.667Z,99.90
2023-06-10T05:37:40.302Z,99.90
2023-06-10T05:40:12.838Z,99.90
2023-06-10T05:42:45.108Z,99.90
2023-06-10T05:45:17.551Z,99.90
2023-06-10T05:47:49.724Z,99.90
2023-06-10T05:50:22.557Z,99.90
2023-06-10T05:52:56.117Z,99.90
2023-06-10T05:55:28.205Z,99.90
2023-06-10T05:58:01.751Z,99.90
2023-06-10T06:00:34.921Z,99.90
2023-06-10T06:03:09.726Z,99.90
2023-06-10T06:05:42.222Z,99.90
2023-06-10T06:08:19.599Z,99.90
2023-06-10T06:10:51.831Z,99.90
2023-06-10T06:13:24.011Z,99.90
2023-06-10T06:15:56.378Z,99.90
2023-06-10T06:18:28.739Z,99.90
2023-06-10T06:21:00.985Z,99.90
2023-06-10T06:23:33.186Z,99.90
2023-06-10T06:26:08.763Z,99.90
2023-06-10T06:28:41.463Z,99.90
2023-06-10T06:31:13.669Z,99.80
2023-06-10T06:33:46.160Z,98.90
2023-06-10T06:36:18.437Z,97.80
2023-06-10T06:38:50.965Z,97.50
2023-06-10T06:41:23.873Z,96.60
2023-06-10T06:43:58.695Z,94.50
2023-06-10T06:46:30.931Z,93.70
2023-06-10T06:49:03.177Z,92.70
2023-06-10T06:51:35.337Z,91.30
2023-06-10T06:54:07.573Z,90.90
2023-06-10T06:56:39.916Z,92.30
2023-06-10T06:59:15.047Z,90.10
2023-06-10T07:01:48.839Z,90.70
2023-06-10T07:04:22.912Z,89.80
2023-06-10T07:06:55.675Z,88.30
2023-06-10T07:09:29.376Z,87.30
2023-06-10T07:12:01.590Z,86.40
2023-06-10T07:14:34.150Z,84.20
2023-06-10T07:17:06.580Z,86.80
2023-06-10T07:19:38.940Z,86.10
2023-06-10T07:22:11.823Z,86.80
2023-06-10T07:24:44.063Z,81.70
2023-06-10T07:27:17.358Z,80.90
2023-06-10T07:29:49.709Z,79.40
2023-06-10T07:32:25.046Z,79.30
2023-06-10T07:34:57.501Z,77.90
2023-06-10T07:37:30.092Z,80.90
2023-06-10T07:40:02.482Z,82.30
2023-06-10T07:42:37.138Z,81.60
2023-06-10T07:45:09.855Z,80.80
2023-06-10T07:47:44.500Z,83.40
2023-06-10T07:50:16.937Z,78.90
2023-06-10T07:52:49.116Z,80.90
2023-06-10T07:55:21.289Z,81.60
2023-06-10T07:57:54.422Z,77.00
2023-06-10T08:00:26.826Z,77.90
2023-06-10T08:02:59.195Z,77.60
2023-06-10T08:05:31.714Z,79.90
2023-06-10T08:08:04.469Z,79.40
2023-06-10T08:10:37.011Z,79.80
2023-06-10T08:13:09.840Z,77.40
2023-06-10T08:15:42.006Z,80.50
2023-06-10T08:18:14.250Z,78.00
2023-06-10T08:20:46.369Z,77.90
2023-06-10T08:23:18.702Z,79.10
2023-06-10T08:25:52.284Z,79.00
2023-06-10T08:28:24.505Z,77.50
2023-06-10T08:30:57.688Z,78.20
2023-06-10T08:33:30.252Z,79.80
2023-06-10T08:36:02.408Z,79.90
2023-06-10T08:38:36.728Z,79.70
2023-06-10T08:41:14.938Z,81.20
2023-06-10T08:44:11.075Z,82.20
2023-06-10T08:47:09.496Z,79.00
2023-06-10T08:49:47.408Z,81.20
2023-06-10T08:52:21.756Z,80.00
2023-06-10T08:55:10.178Z,82.30
2023-06-10T08:57:49.030Z,85.60
2023-06-10T09:00:22.544Z,81.30
2023-06-10T09:02:56.317Z,82.30
2023-06-10T09:05:30.856Z,83.50
2023-06-10T09:08:10.299Z,84.30
2023-06-10T09:10:42.736Z,85.80
2023-06-10T09:13:16.806Z,86.90
2023-06-10T09:15:52.429Z,83.10
2023-06-10T09:18:25.060Z,83.70
2023-06-10T09:20:57.437Z,86.90
2023-06-10T09:23:30.294Z,83.40
2023-06-10T09:26:02.546Z,86.00
2023-06-10T09:28:41.614Z,83.70
2023-06-10T09:31:23.000Z,83.00
2023-06-10T09:33:55.581Z,83.50
2023-06-10T09:36:37.824Z,83.00
2023-06-10T09:39:18.253Z,85.20
2023-06-10T09:41:50.741Z,82.80
2023-06-10T09:44:24.617Z,82.70
2023-06-10T09:47:00.468Z,83.80
2023-06-10T09:49:32.926Z,85.60
2023-06-10T09:52:07.006Z,84.70
2023-06-10T09:54:39.753Z,87.00
2023-06-10T09:57:12.195Z,86.50
2023-06-10T09:59:46.886Z,84.20
2023-06-10T10:02:20.347Z,87.70
2023-06-10T10:04:52.717Z,86.10
2023-06-10T10:07:25.015Z,85.80
2023-06-10T10:09:57.433Z,86.00
2023-06-10T10:12:31.106Z,83.10
2023-06-10T10:15:04.842Z,87.70
2023-06-10T10:17:46.086Z,87.20
2023-06-10T10:20:32.366Z,82.30
2023-06-10T10:23:06.514Z,86.50
2023-06-10T10:25:43.723Z,86.50
2023-06-10T10:28:25.449Z,88.00
2023-06-10T10:31:14.346Z,85.40
2023-06-10T10:34:02.590Z,86.70
2023-06-10T10:36:39.279Z,86.60
2023-06-10T10:39:13.458Z,87.60
2023-06-10T10:41:47.867Z,85.50
2023-06-10T10:44:21.372Z,86.80
2023-06-10T10:46:55.407Z,84.40
2023-06-10T10:49:28.608Z,83.90
2023-06-10T10:52:03.149Z,85.60
2023-06-10T10:54:48.015Z,83.00
2023-06-10T10:57:22.381Z,84.50
2023-06-10T11:00:05.977Z,84.30
2023-06-10T11:02:45.433Z,80.60
2023-06-10T11:05:18.701Z,80.70
2023-06-10T11:08:09.105Z,82.70
2023-06-10T11:10:56.797Z,79.00
2023-06-10T11:13:29.637Z,81.10
2023-06-10T11:16:05.874Z,81.40
2023-06-10T11:18:40.711Z,80.90
2023-06-10T11:21:13.762Z,80.20
2023-06-10T11:23:51.327Z,85.50
2023-06-10T11:26:33.137Z,83.00
2023-06-10T11:29:09.592Z,80.50
2023-06-10T11:31:53.274Z,79.80
2023-06-10T11:34:29.678Z,79.20
2023-06-10T11:37:05.260Z,78.10
2023-06-10T11:39:41.309Z,76.40
2023-06-10T11:42:15.729Z,79.20
2023-06-10T11:44:55.437Z,76.70
2023-06-10T11:47:29.418Z,80.20
2023-06-10T11:50:02.335Z,79.90
2023-06-10T11:52:39.284Z,72.40
2023-06-10T11:55:13.614Z,77.20
2023-06-10T11:57:46.134Z,78.10
2023-06-10T12:00:18.998Z,76.20
2023-06-10T12:02:59.114Z,72.00
2023-06-10T12:05:31.602Z,78.00
2023-06-10T12:08:13.622Z,73.70
2023-06-10T12:10:45.942Z,71.40
2023-06-10T12:13:19.348Z,73.60
2023-06-10T12:15:51.987Z,72.40
2023-06-10T12:18:25.354Z,76.80
2023-06-10T12:20:57.519Z,73.90
2023-06-10T12:23:30.346Z,74.20
2023-06-10T12:26:03.217Z,73.10
2023-06-10T12:28:35.582Z,72.20
2023-06-10T12:31:11.002Z,73.20
2023-06-10T12:33:44.693Z,72.70
2023-06-10T12:36:19.534Z,75.90
2023-06-10T12:38:54.707Z,75.10
2023-06-10T12:41:38.271Z,72.20
2023-06-10T12:44:12.114Z,72.50
2023-06-10T12:46:45.450Z,75.30
2023-06-10T12:49:27.700Z,74.20
2023-06-10T12:52:00.181Z,75.60
2023-06-10T12:54:33.019Z,73.90
2023-06-10T12:57:06.045Z,73.30
2023-06-10T12:59:38.450Z,71.70
2023-06-10T13:02:12.036Z,67.60
2023-06-10T13:04:45.975Z,73.10
2023-06-10T13:07:19.864Z,71.10
2023-06-10T13:09:55.307Z,72.30
2023-06-10T13:12:46.240Z,69.30
2023-06-10T13:15:19.892Z,69.20
2023-06-10T13:17:52.941Z,68.00
2023-06-10T13:20:27.636Z,67.80
2023-06-10T13:23:00.451Z,71.20
2023-06-10T13:25:35.659Z,71.20
2023-06-10T13:28:09.439Z,71.70
2023-06-10T13:30:42.485Z,71.70
2023-06-10T13:33:15.079Z,75.00
2023-06-10T13:35:47.739Z,73.60
2023-06-10T13:38:19.947Z,74.10
2023-06-10T13:40:52.387Z,71.00
2023-06-10T13:43:24.688Z,69.20
2023-06-10T13:45:57.108Z,69.70
2023-06-10T13:48:29.819Z,68.70
2023-06-10T13:51:02.481Z,70.80
2023-06-10T13:53:36.011Z,71.40
2023-06-10T13:56:08.460Z,72.10
2023-06-10T13:58:42.275Z,73.20
2023-06-10T14:01:15.686Z,72.40
2023-06-10T14:03:48.039Z,74.50
2023-06-10T14:06:20.875Z,73.40
2023-06-10T14:08:55.994Z,70.30
2023-06-10T14:11:28.804Z,70.40
2023-06-10T14:14:02.006Z,71.90
2023-06-10T14:16:34.636Z,72.10
2023-06-10T14:19:07.139Z,69.50
2023-06-10T14:21:39.402Z,73.30
2023-06-10T14:24:13.475Z,72.40
2023-06-10T14:26:46.029Z,72.20
2023-06-10T14:29:40.080Z,69.20
2023-06-10T14:32:44.990Z,70.40
2023-06-10T14:35:27.886Z,70.40
2023-06-10T14:38:33.300Z,70.00
2023-06-10T14:41:38.088Z,70.20
2023-06-10T14:44:23.314Z,65.80
2023-06-10T14:46:58.979Z,69.10
2023-06-10T14:49:40.510Z,68.40
2023-06-10T14:52:23.874Z,67.50
2023-06-10T14:55:21.408Z,69.20
2023-06-10T14:57:57.847Z,69.20
2023-06-10T15:00:55.402Z,68.80
2023-06-10T15:03:49.426Z,68.30
2023-06-10T15:07:07.545Z,69.00
2023-06-10T15:10:07.212Z,69.10
2023-06-10T15:12:51.409Z,69.90
2023-06-10T15:15:33.560Z,70.10
2023-06-10T15:21:11.447Z,71.00
2023-06-10T15:24:31.161Z,69.30
2023-06-10T15:27:18.693Z,69.70
2023-06-10T15:29:52.912Z,71.60
2023-06-10T15:32:25.834Z,73.10
2023-06-10T15:34:58.784Z,71.90
2023-06-10T15:37:33.043Z,73.30
2023-06-10T15:40:11.302Z,70.60
2023-06-10T15:42:45.497Z,69.40
2023-06-10T15:45:19.966Z,70.70
2023-06-10T15:47:54.770Z,70.00
2023-06-10T15:50:28.994Z,69.90
2023-06-10T15:53:09.466Z,71.50
2023-06-10T15:55:43.813Z,71.10
2023-06-10T15:58:16.479Z,70.90
2023-06-10T16:00:49.999Z,71.30
2023-06-10T16:03:23.761Z,71.40
2023-06-10T16:05:56.274Z,72.00
2023-06-10T16:08:32.182Z,70.10
2023-06-10T16:11:06.593Z,68.00
2023-06-10T16:13:42.556Z,69.50
2023-06-10T16:16:16.064Z,69.00
2023-06-10T16:18:48.690Z,70.10
2023-06-10T16:21:21.921Z,70.10
2023-06-10T16:23:54.456Z,69.60
2023-06-10T16:26:28.553Z,71.20
2023-06-10T16:29:00.990Z,73.10
2023-06-10T16:31:33.632Z,70.80
2023-06-10T16:34:06.570Z,71.70
2023-06-10T16:36:39.584Z,71.70
2023-06-10T16:39:12.016Z,71.60
2023-06-10T16:41:44.243Z,72.90
2023-06-10T16:44:18.118Z,72.30
2023-06-10T16:46:50.691Z,71.90
2023-06-10T16:49:23.165Z,70.90
2023-06-10T16:51:55.359Z,69.60
2023-06-10T16:54:27.506Z,71.00
2023-06-10T16:56:59.691Z,71.40
2023-06-10T16:59:31.898Z,71.40
2023-06-10T17:02:04.459Z,72.50
2023-06-10T17:04:37.581Z,71.80
2023-06-10T17:07:09.782Z,69.90
2023-06-10T17:09:42.108Z,69.00
2023-06-10T17:12:14.274Z,70.20
2023-06-10T17:14:46.799Z,71.50
2023-06-10T17:17:19.068Z,71.00
2023-06-10T17:19:51.871Z,70.40
2023-06-10T17:22:23.937Z,71.60
2023-06-10T17:24:56.160Z,71.40
2023-06-10T17:27:28.661Z,71.70
2023-06-10T17:30:00.889Z,70.50
2023-06-10T17:32:34.580Z,71.70
2023-06-10T17:35:08.508Z,71.70
2023-06-10T17:37:41.145Z,73.10
2023-06-10T17:40:14.028Z,73.30
2023-06-10T17:42:47.275Z,74.40
2023-06-10T17:45:19.388Z,73.50
2023-06-10T17:47:51.940Z,74.20
2023-06-10T17:50:24.670Z,75.20
2023-06-10T17:52:57.087Z,75.80
2023-06-10T17:55:29.326Z,75.40
2023-06-10T17:58:02.615Z,75.60
2023-06-10T18:00:34.800Z,75.90
2023-06-10T18:03:07.067Z,76.40
2023-06-10T18:05:39.236Z,76.60
2023-06-10T18:08:11.466Z,77.10
2023-06-10T18:10:43.968Z,76.50
2023-06-10T18:13:16.638Z,77.10
2023-06-10T18:15:49.499Z,77.70
2023-06-10T18:18:21.703Z,78.00
2023-06-10T18:20:54.065Z,78.20
2023-06-10T18:23:26.409Z,78.30
2023-06-10T18:25:58.670Z,78.40
2023-06-10T18:28:31.055Z,79.40
2023-06-10T18:31:03.554Z,79.50
2023-06-10T18:33:35.854Z,79.30
2023-06-10T18:36:08.003Z,79.70
2023-06-10T18:38:40.065Z,79.80
2023-06-10T18:41:14.135Z,80.30
2023-06-10T18:43:46.986Z,81.10
2023-06-10T18:46:19.092Z,81.60
2023-06-10T18:48:51.502Z,81.60
2023-06-10T18:51:23.813Z,81.80
2023-06-10T18:53:56.414Z,82.00
2023-06-10T18:56:28.667Z,82.10
2023-06-10T18:59:00.999Z,82.40
2023-06-10T19:01:33.356Z,83.40
2023-06-10T19:04:05.857Z,82.60
2023-06-10T19:06:40.290Z,83.40
2023-06-10T19:09:12.794Z,82.30
2023-06-10T19:11:45.008Z,82.60
2023-06-10T19:14:17.383Z,83.10
2023-06-10T19:16:49.811Z,82.80
2023-06-10T19:19:22.044Z,82.90
2023-06-10T19:21:54.401Z,82.30
2023-06-10T19:24:27.154Z,82.40
2023-06-10T19:26:59.630Z,83.10
2023-06-10T19:29:32.105Z,82.90
2023-06-10T19:32:06.327Z,83.20
2023-06-10T19:34:39.419Z,83.50
2023-06-10T19:37:11.817Z,83.40
2023-06-10T19:39:44.916Z,84.20
2023-06-10T19:42:17.485Z,85.00
2023-06-10T19:44:49.789Z,86.20
2023-06-10T19:47:22.224Z,86.20
2023-06-10T19:49:54.428Z,85.70
2023-06-10T19:52:27.608Z,86.20
2023-06-10T19:54:59.935Z,85.50
2023-06-10T19:57:32.712Z,86.40
2023-06-10T20:00:06.142Z,86.30
2023-06-10T20:02:41.807Z,86.30
2023-06-10T20:05:15.007Z,87.10
2023-06-10T20:07:47.768Z,87.60
2023-06-10T20:10:21.252Z,87.20
2023-06-10T20:12:53.572Z,87.30
2023-06-10T20:15:25.957Z,88.70
2023-06-10T20:17:58.323Z,88.70
2023-06-10T20:20:30.636Z,89.20
2023-06-10T20:23:03.089Z,88.90
2023-06-10T20:25:36.264Z,88.90
2023-06-10T20:28:08.896Z,88.70
2023-06-10T20:30:42.797Z,89.50
2023-06-10T20:33:15.311Z,89.00
2023-06-10T20:35:47.692Z,89.30
2023-06-10T20:38:20.578Z,90.10
2023-06-10T20:40:53.033Z,89.90
2023-06-10T20:43:25.963Z,89.60
2023-06-10T20:45:58.419Z,90.20
2023-06-10T20:48:31.184Z,90.40
2023-06-10T20:51:03.876Z,90.30
2023-06-10T20:53:36.557Z,90.40
2023-06-10T20:56:09.248Z,90.10
2023-06-10T20:58:41.703Z,90.50
2023-06-10T21:01:14.284Z,90.50
2023-06-10T21:03:46.980Z,90.50
2023-06-10T21:06:20.413Z,90.90
2023-06-10T21:08:54.874Z,90.90
2023-06-10T21:11:28.174Z,90.80
2023-06-10T21:14:01.383Z,91.20
2023-06-10T21:16:35.004Z,91.20
2023-06-10T21:19:07.750Z,91.30
2023-06-10T21:21:40.366Z,91.10
2023-06-10T21:24:13.004Z,91.20
2023-06-10T21:26:46.133Z,91.50
2023-06-10T21:29:18.994Z,91.70
2023-06-10T21:31:51.733Z,91.70
2023-06-10T21:34:24.357Z,92.00
2023-06-10T21:36:56.976Z,91.70
2023-06-10T21:39:29.284Z,91.80
2023-06-10T21:42:01.968Z,91.80
2023-06-10T21:44:34.572Z,91.90
2023-06-10T21:47:07.705Z,91.60
2023-06-10T21:49:40.001Z,92.30
2023-06-10T21:52:12.538Z,92.30
2023-06-10T21:54:44.963Z,92.20
2023-06-10T21:57:17.513Z,92.40
2023-06-10T21:59:50.169Z,92.60
2023-06-10T22:02:23.051Z,92.70
2023-06-10T22:04:56.307Z,92.60
2023-06-10T22:07:28.552Z,92.20
2023-06-10T22:10:03.729Z,92.30
2023-06-10T22:12:37.695Z,92.50
2023-06-10T22:15:10.708Z,92.50
2023-06-10T22:17:43.881Z,92.50
2023-06-10T22:20:16.799Z,92.50
2023-06-10T22:22:49.459Z,92.90
2023-06-10T22:25:22.067Z,93.00
2023-06-10T22:27:54.635Z,92.80
2023-06-10T22:30:27.105Z,92.80
2023-06-10T22:32:59.534Z,93.10
2023-06-10T22:35:32.393Z,93.40
2023-06-10T22:38:05.244Z,93.70
2023-06-10T22:40:39.176Z,93.30
2023-06-10T22:43:13.580Z,93.50
2023-06-10T22:45:45.802Z,93.50
2023-06-10T22:48:18.269Z,93.30
2023-06-10T22:50:50.729Z,93.40
2023-06-10T22:53:23.039Z,93.50
2023-06-10T22:55:55.364Z,93.70
2023-06-10T22:58:27.878Z,94.00
2023-06-10T23:01:00.030Z,94.40
2023-06-10T23:03:32.556Z,94.50
2023-06-10T23:06:05.009Z,94.70
2023-06-10T23:08:37.268Z,94.30
2023-06-10T23:11:09.621Z,94.70
2023-06-10T23:13:41.944Z,94.70
2023-06-10T23:16:14.424Z,94.70
2023-06-10T23:18:47.836Z,95.50
2023-06-10T23:21:21.764Z,95.70
2023-06-10T23:23:54.620Z,95.20
2023-06-10T23:26:28.741Z,95.10
2023-06-10T23:29:00.960Z,95.70
2023-06-10T23:31:33.236Z,96.10
2023-06-10T23:34:05.733Z,96.10
2023-06-10T23:36:41.741Z,95.80
2023-06-10T23:39:17.347Z,96.00
2023-06-10T23:41:50.093Z,97.20
2023-06-10T23:44:22.510Z,97.00
2023-06-10T23:46:54.796Z,96.80
2023-06-10T23:49:27.049Z,96.60
2023-06-10T23:51:59.577Z,96.30
2023-06-10T23:54:31.767Z,96.90
2023-06-10T23:57:04.285Z,96.40
2023-06-10T23:59:37.622Z,96.80
